This is the latest recevied weather packets stored in our database for station/object IK4PKL-13. If no packets are shown the sender has not sent any weather packets the latest 10 day(s).
| Time | Temp. | Humidity | Pressure | Rain* | Wind** | Luminosity | Snow |
|---|---|---|---|---|---|---|---|
| 1777104944 | 20.56° C | 45% | 1019.7 hPa | 0 mm | - | 429 W/m² | - |
| 1777101328 | 20° C | 46% | 1019.8 hPa | 0 mm | - | 316 W/m² | - |
| 1777099577 | 16.67° C | 58% | 1019.8 hPa | 0 mm | - | 240 W/m² | - |
| 1777098341 | 15° C | 61% | 1019.8 hPa | 0 mm | - | 187 W/m² | - |
| 1777097158 | 14.44° C | 64% | 1019.5 hPa | 0 mm | - | 144 W/m² | - |
| 1777090543 | 8.89° C | 86% | 1018.9 hPa | 0 mm | - | 3 W/m² | - |
| 1777083940 | 8.89° C | 87% | 1018.4 hPa | 0 mm | - | 0 W/m² | - |
| 1777081520 | 10.56° C | 82% | 1018.3 hPa | 0 mm | - | 0 W/m² | - |
| 1777080944 | 10° C | 85% | 1018.3 hPa | 0 mm | - | 0 W/m² | - |
| 1777078544 | 10° C | 87% | 1018.4 hPa | 0 mm | - | 0 W/m² | - |
| 1777076737 | 10.56° C | 86% | 1018.5 hPa | 0 mm | - | 0 W/m² | - |
| 1777070720 | 11.67° C | 84% | 1019.1 hPa | 0 mm | - | 0 W/m² | - |
| 1777066529 | 12.78° C | 81% | 1019.1 hPa | 0 mm | - | 0 W/m² | - |
| 1777064741 | 13.33° C | 79% | 1018.9 hPa | 0 mm | - | 0 W/m² | - |
| 1777063536 | 13.89° C | 77% | 1018.8 hPa | 0 mm | - | 0 W/m² | - |
| 1777062928 | 13.89° C | 77% | 1018.8 hPa | 0 mm | - | 0 W/m² | - |
| 1777057520 | 16.67° C | 69% | 1018.3 hPa | 0 mm | - | 0 W/m² | - |
| 1777056320 | 17.22° C | 69% | 1018.1 hPa | 0 mm | - | 0 W/m² | - |
| 1777047920 | 20.56° C | 51% | 1018.1 hPa | 0 mm | - | 115 W/m² | - |
| 1777046128 | 21.11° C | 47% | 1018.3 hPa | 0 mm | - | 189 W/m² | - |
| 1777044335 | 21.67° C | 41% | 1018.4 hPa | 0 mm | - | 278 W/m² | - |
| 1777037136 | 22.22° C | 45% | 1019.5 hPa | 0 mm | - | 552 W/m² | - |
| 1777036528 | 21.67° C | 48% | 1019.7 hPa | 0 mm | - | 568 W/m² | - |
| 1777029935 | 20.56° C | 52% | 1020.7 hPa | 0 mm | - | 673 W/m² | - |
| 1777028736 | 20° C | 53% | 1020.8 hPa | 0 mm | - | 674 W/m² | - |
* Rain latest hour (hover to see other rain measurements)
** Current wind speed in m/s (hover to see current wind gust speed)